This is the latest recevied weather packets stored in our database for station/object WX5HOT. If no packets are shown the sender has not sent any weather packets the latest 1 day(s).
| Time | Temp. | Humidity | Pressure | Rain* | Wind** | Luminosity | Snow |
|---|---|---|---|---|---|---|---|
| 1778054215 | 12.78° C | 99% | 1059.1 hPa | 0 mm | 2.24 m/s, 273° | 0 W/m² | - |
| 1778053912 | 12.78° C | 99% | 1059.1 hPa | 0 mm | 0.45 m/s, 321° | 0 W/m² | - |
| 1778053610 | 12.78° C | 99% | 1059 hPa | 0 mm | 1.34 m/s, 274° | 0 W/m² | - |
| 1778053306 | 12.78° C | 99% | 1057.9 hPa | 21.08 mm | 1.79 m/s, 274° | 0 W/m² | - |
| 1778053004 | 12.78° C | 99% | 1058.2 hPa | 86.36 mm | 2.68 m/s, 278° | 0 W/m² | - |
| 1778052701 | 13.33° C | 99% | 1058.2 hPa | 73.15 mm | 2.68 m/s, 325° | 0 W/m² | - |
| 1778052398 | 13.89° C | 98% | 1060.7 hPa | 9.65 mm | 7.6 m/s, 265° | 0 W/m² | - |
| 1778052096 | 13.89° C | 98% | 1057.1 hPa | 1.78 mm | 2.68 m/s, 15° | 0 W/m² | - |
| 1778051793 | 13.89° C | 98% | 1056.6 hPa | 0 mm | 1.34 m/s, 41° | 0 W/m² | - |
| 1778051491 | 14.44° C | 98% | 1057.1 hPa | 0 mm | 2.24 m/s, 296° | 0 W/m² | - |
| 1778051187 | 15° C | 98% | 1057.6 hPa | 0 mm | 2.24 m/s, 358° | 0 W/m² | - |
| 1778050885 | 15° C | 98% | 1057.8 hPa | 0 mm | 0.89 m/s, 322° | 0 W/m² | - |
| 1778050583 | 15° C | 98% | 1058 hPa | 0 mm | 1.79 m/s, 310° | 0 W/m² | - |
| 1778050279 | 15° C | 98% | 1058.2 hPa | 0 mm | 0.89 m/s, 38° | 0 W/m² | - |
| 1778049976 | 15° C | 98% | 1058.4 hPa | 0 mm | 0.89 m/s, 352° | 0 W/m² | - |
| 1778049671 | 15° C | 98% | 1058.3 hPa | 0 mm | 1.79 m/s, 325° | 0 W/m² | - |
| 1778049370 | 15° C | 97% | 1058.5 hPa | 0 mm | 0.89 m/s, 96° | 0 W/m² | - |
| 1778049067 | 15° C | 97% | 1058.2 hPa | 0 mm | 2.68 m/s, 287° | 0 W/m² | - |
| 1778048765 | 15.56° C | 97% | 1058.7 hPa | 0 mm | 4.02 m/s, 305° | 0 W/m² | - |
| 1778048462 | 15.56° C | 97% | 1058.3 hPa | 0 mm | 2.68 m/s, 17° | 0 W/m² | - |
| 1778048158 | 16.11° C | 97% | 1058.7 hPa | 0 mm | 1.34 m/s, 249° | 0 W/m² | - |
| 1778047856 | 16.11° C | 97% | 1058.5 hPa | 0 mm | 2.24 m/s, 66° | 0 W/m² | - |
| 1778047554 | 16.67° C | 97% | 1058.7 hPa | 0 mm | 1.79 m/s, 354° | 0 W/m² | - |
| 1778047250 | 16.67° C | 96% | 1058.5 hPa | 0 mm | 1.79 m/s, 358° | 0 W/m² | - |
| 1778046948 | 16.67° C | 96% | 1058.6 hPa | 0 mm | 1.34 m/s, 352° | 0 W/m² | - |
* Rain latest hour (hover to see other rain measurements)
** Current wind speed in m/s (hover to see current wind gust speed)